Time;durP1;ratioP1;P1;durP2;ratioP2;P2;SDS_P1;SDS_P2;PMS_P1;PMS_P2;Temp;Humidity;BMP_temperature;BMP_pressure;BME280_temperature;BME280_humidity;BME280_pressure;Samples;Min_cycle;Max_cycle;Signal;HPM_P1;HPM_P2
2021/06/14 00:02:45;;;;;;;6.10;3.63;;;;;;;-139.48;100.00;61774.03;5081459;28;20078;-66
2021/06/14 00:05:35;;;;;;;7.05;3.30;;;;;;;-139.48;100.00;61774.03;5067306;28;20054;-65
2021/06/14 00:08:20;;;;;;;7.45;3.55;;;;;;;-139.48;100.00;61774.03;5096726;28;20043;-66
2021/06/14 00:11:04;;;;;;;3.90;3.20;;;;;;;-139.48;100.00;61774.03;5067425;28;20149;-66
2021/06/14 00:13:48;;;;;;;5.15;3.47;;;;;;;-139.48;100.00;61774.03;5096551;28;20055;-66
2021/06/14 00:16:35;;;;;;;4.75;3.25;;;;;;;-139.48;100.00;61774.03;5081308;28;20055;-66
2021/06/14 00:19:20;;;;;;;4.43;3.45;;;;;;;-139.48;100.00;61774.03;5081698;28;20089;-66
2021/06/14 00:22:05;;;;;;;10.52;3.65;;;;;;;-139.48;100.00;61774.03;5081429;28;20047;-66
2021/06/14 00:24:48;;;;;;;7.22;3.42;;;;;;;-139.48;100.00;61774.03;5080813;28;20047;-66
2021/06/14 00:27:32;;;;;;;7.90;3.75;;;;;;;-139.48;100.00;61774.03;5066951;28;20101;-66
2021/06/14 00:30:38;;;;;;;7.30;3.55;;;;;;;-139.48;100.00;61774.03;5096130;28;20047;-66
2021/06/14 00:33:22;;;;;;;4.53;3.30;;;;;;;-139.48;100.00;61774.03;5096073;28;20515;-66
2021/06/14 00:36:08;;;;;;;6.03;3.42;;;;;;;-139.48;100.00;61774.03;5066210;28;20055;-66
2021/06/14 00:38:52;;;;;;;5.80;3.45;;;;;;;-139.48;100.00;61774.03;5080575;28;20051;-66
2021/06/14 00:41:35;;;;;;;7.43;3.30;;;;;;;-139.48;100.00;61774.03;5096193;28;20051;-66
2021/06/14 00:44:19;;;;;;;9.00;3.95;;;;;;;-139.48;100.00;61774.03;5080736;28;20047;-65
2021/06/14 00:47:04;;;;;;;6.85;3.47;;;;;;;-139.48;100.00;61774.03;5095795;28;20051;-66
2021/06/14 00:49:48;;;;;;;7.53;3.78;;;;;;;-139.48;100.00;61774.03;5095959;28;20056;-66
2021/06/14 00:52:31;;;;;;;7.25;3.83;;;;;;;-139.48;100.00;61774.03;5080637;28;20557;-66
2021/06/14 00:55:18;;;;;;;4.90;3.42;;;;;;;-139.48;100.00;61774.03;5095916;28;20523;-66
2021/06/14 00:58:02;;;;;;;6.20;3.42;;;;;;;-139.48;100.00;61774.03;5080504;28;20043;-66
2021/06/14 01:00:47;;;;;;;10.40;3.63;;;;;;;-139.48;100.00;61774.03;5095776;28;20050;-66
2021/06/14 01:03:31;;;;;;;7.72;3.50;;;;;;;-139.48;100.00;61774.03;5080327;28;20081;-66
2021/06/14 01:06:15;;;;;;;5.20;3.30;;;;;;;-139.48;100.00;61774.03;5080317;28;20093;-66
2021/06/14 01:09:00;;;;;;;7.13;3.40;;;;;;;-139.48;100.00;61774.03;5080334;28;20408;-66
2021/06/14 01:11:50;;;;;;;5.80;3.97;;;;;;;-139.48;100.00;61774.03;5066197;28;20458;-64
2021/06/14 01:14:49;;;;;;;9.27;3.67;;;;;;;-139.48;100.00;61774.03;5066198;28;20051;-66
2021/06/14 01:17:53;;;;;;;7.53;3.47;;;;;;;-139.48;100.00;61774.03;5095457;28;20043;-66
2021/06/14 01:21:00;;;;;;;5.47;3.50;;;;;;;-139.48;100.00;61774.03;5080184;28;20134;-63
2021/06/14 01:23:53;;;;;;;6.32;3.55;;;;;;;-139.48;100.00;61774.03;5065758;28;20495;-66
2021/06/14 01:26:58;;;;;;;6.10;3.90;;;;;;;-139.48;100.00;61774.03;5080046;28;20511;-64
2021/06/14 01:29:43;;;;;;;7.82;3.90;;;;;;;-139.48;100.00;61774.03;5079888;28;20088;-66
2021/06/14 01:32:27;;;;;;;6.18;3.60;;;;;;;-139.48;100.00;61774.03;5079662;28;20074;-66
2021/06/14 01:35:13;;;;;;;8.77;3.58;;;;;;;-139.48;100.00;61774.03;5079828;28;20086;-66
2021/06/14 01:37:59;;;;;;;6.60;3.83;;;;;;;-139.48;100.00;61774.03;5065668;28;20535;-66
2021/06/14 01:40:44;;;;;;;5.88;3.67;;;;;;;-139.48;100.00;61774.03;5079603;28;20042;-66
2021/06/14 01:43:31;;;;;;;6.47;3.80;;;;;;;-139.48;100.00;61774.03;5079573;28;20047;-66
2021/06/14 01:46:19;;;;;;;8.45;3.67;;;;;;;-139.48;100.00;61774.03;5065414;28;20125;-66
2021/06/14 01:49:06;;;;;;;8.55;3.80;;;;;;;-139.48;100.00;61774.03;5078494;28;20413;-66
2021/06/14 01:51:50;;;;;;;8.27;4.30;;;;;;;-139.48;100.00;61774.03;5095065;28;20043;-66
2021/06/14 01:54:35;;;;;;;7.05;3.35;;;;;;;-139.48;100.00;61774.03;5079040;28;20419;-66
2021/06/14 01:57:19;;;;;;;5.30;3.65;;;;;;;-139.48;100.00;61774.03;5079193;28;20051;-66
2021/06/14 02:00:06;;;;;;;6.43;3.60;;;;;;;-139.48;100.00;61774.03;5094320;28;20097;-66
2021/06/14 02:02:50;;;;;;;5.15;3.50;;;;;;;-139.48;100.00;61774.03;5094508;28;20412;-66
2021/06/14 02:05:34;;;;;;;;;;;;;;;-139.48;100.00;61774.03;5079454;28;20193;-66
2021/06/14 02:08:19;;;;;;;6.95;4.05;;;;;;;-139.48;100.00;61774.03;5094548;28;19919;-63
2021/06/14 02:11:03;;;;;;;7.32;4.13;;;;;;;-139.48;100.00;61774.03;5079100;28;20113;-66
2021/06/14 02:13:48;;;;;;;8.55;4.50;;;;;;;-139.48;100.00;61774.03;5094191;28;20139;-65
2021/06/14 02:16:32;;;;;;;5.97;4.10;;;;;;;-139.48;100.00;61774.03;5064921;28;20051;-66
2021/06/14 02:19:16;;;;;;;6.70;3.97;;;;;;;-139.48;100.00;61774.03;5064767;28;20080;-66
2021/06/14 02:22:01;;;;;;;8.10;4.10;;;;;;;-139.48;100.00;61774.03;5078649;28;20127;-66
2021/06/14 02:24:45;;;;;;;7.72;4.40;;;;;;;-139.48;100.00;61774.03;5093901;28;20067;-66
2021/06/14 02:27:29;;;;;;;;;;;;;;;-139.48;100.00;61774.03;5079319;28;20047;-66
2021/06/14 02:30:20;;;;;;;4.93;3.88;;;;;;;-139.48;100.00;61774.03;5064636;28;19958;-66
2021/06/14 02:33:04;;;;;;;7.82;4.43;;;;;;;-139.48;100.00;61774.03;5078524;28;20136;-66
2021/06/14 02:35:48;;;;;;;7.25;4.22;;;;;;;-139.48;100.00;61774.03;5064465;28;20549;-66
2021/06/14 02:38:33;;;;;;;7.72;3.60;;;;;;;-139.48;100.00;61774.03;5078616;28;20055;-66
2021/06/14 02:41:18;;;;;;;5.95;4.53;;;;;;;-139.48;100.00;61774.03;5078398;28;20062;-66
2021/06/14 02:44:05;;;;;;;7.63;4.53;;;;;;;-139.48;100.00;61774.03;5064365;28;20112;-66
2021/06/14 02:46:49;;;;;;;9.18;4.43;;;;;;;-139.48;100.00;61774.03;5079122;28;20520;-66
2021/06/14 02:49:34;;;;;;;6.78;4.60;;;;;;;-139.48;100.00;61774.03;5064034;28;20415;-64
2021/06/14 02:52:18;;;;;;;9.18;4.75;;;;;;;-139.48;100.00;61774.03;5064341;28;20055;-66
2021/06/14 02:55:07;;;;;;;8.50;5.13;;;;;;;-139.48;100.00;61774.03;5078109;28;20054;-66
2021/06/14 02:57:53;;;;;;;8.07;4.47;;;;;;;-139.48;100.00;61774.03;5078337;28;20051;-65
2021/06/14 03:00:38;;;;;;;7.63;4.32;;;;;;;-139.48;100.00;61774.03;5064386;28;20054;-65
2021/06/14 03:03:21;;;;;;;6.65;4.45;;;;;;;-139.48;100.00;61774.03;5078032;28;20101;-65
2021/06/14 03:06:09;;;;;;;10.52;4.65;;;;;;;-139.48;100.00;61774.03;5078287;28;20055;-66
2021/06/14 03:08:54;;;;;;;6.38;4.53;;;;;;;-139.48;100.00;61774.03;5078253;28;20393;-66
2021/06/14 03:11:40;;;;;;;10.88;4.80;;;;;;;-139.48;100.00;61774.03;5078011;28;20097;-66
2021/06/14 03:14:25;;;;;;;9.50;4.60;;;;;;;-139.48;100.00;61774.03;5093244;28;20154;-65
2021/06/14 03:17:10;;;;;;;8.85;4.90;;;;;;;-139.48;100.00;61774.03;5064035;28;20043;-66
2021/06/14 03:19:56;;;;;;;9.52;4.60;;;;;;;-139.48;100.00;61774.03;5078096;28;20051;-66
2021/06/14 03:22:40;;;;;;;8.65;4.70;;;;;;;-139.48;100.00;61774.03;5078260;28;20461;-66
2021/06/14 03:25:24;;;;;;;10.95;5.15;;;;;;;-139.48;100.00;61774.03;5078149;28;20412;-66
2021/06/14 03:28:08;;;;;;;6.90;4.95;;;;;;;-139.48;100.00;61774.03;5078160;28;20042;-66
2021/06/14 03:30:52;;;;;;;8.65;5.00;;;;;;;-139.48;100.00;61774.03;5077768;28;20063;-66
2021/06/14 03:33:38;;;;;;;7.57;4.57;;;;;;;-139.48;100.00;61774.03;5077755;28;20047;-66
2021/06/14 03:36:23;;;;;;;6.35;4.28;;;;;;;-139.48;100.00;61774.03;5063819;28;20100;-66
2021/06/14 03:39:08;;;;;;;8.73;4.93;;;;;;;-139.48;100.00;61774.03;5077787;28;20094;-66
2021/06/14 03:41:52;;;;;;;10.27;4.95;;;;;;;-139.48;100.00;61774.03;5078002;28;20051;-64
2021/06/14 03:44:36;;;;;;;5.93;4.32;;;;;;;-139.48;100.00;61774.03;5077926;28;20139;-66
2021/06/14 03:47:20;;;;;;;9.00;4.80;;;;;;;-139.48;100.00;61774.03;5077945;28;20201;-66
2021/06/14 03:50:06;;;;;;;9.57;4.63;;;;;;;-139.48;100.00;61774.03;5077978;28;20063;-66
2021/06/14 03:52:50;;;;;;;10.93;5.32;;;;;;;-139.48;100.00;61774.03;5078245;28;20043;-66
2021/06/14 03:55:34;;;;;;;7.15;4.47;;;;;;;-139.48;100.00;61774.03;5077636;28;20568;-66
2021/06/14 03:58:18;;;;;;;13.27;4.97;;;;;;;-139.48;100.00;61774.03;5077798;28;20055;-64
2021/06/14 04:01:02;;;;;;;7.75;4.80;;;;;;;-139.48;100.00;61774.03;5092892;28;20105;-66
2021/06/14 04:03:59;;;;;;;9.60;4.60;;;;;;;-139.48;100.00;61774.03;5077548;28;20121;-66
2021/06/14 04:06:43;;;;;;;9.00;4.82;;;;;;;-139.48;100.00;61774.03;5093058;28;20047;-66
2021/06/14 04:09:27;;;;;;;13.35;4.88;;;;;;;-139.48;100.00;61774.03;5092895;28;20512;-66
2021/06/14 04:12:11;;;;;;;8.80;4.43;;;;;;;-139.48;100.00;61774.03;5079580;28;20055;-66
2021/06/14 04:14:56;;;;;;;11.35;5.30;;;;;;;-139.48;100.00;61774.03;5096630;28;20100;-66
2021/06/14 04:17:39;;;;;;;;;;;;;;;-139.48;100.00;61774.03;5081543;28;20565;-66
2021/06/14 04:20:23;;;;;;;9.27;5.00;;;;;;;-139.48;100.00;61774.03;5067211;28;19923;-66
2021/06/14 04:23:07;;;;;;;12.25;4.95;;;;;;;-139.48;100.00;61774.03;5081112;28;20117;-66
2021/06/14 04:25:51;;;;;;;9.32;4.40;;;;;;;-139.48;100.00;61774.03;5081154;28;20134;-66
2021/06/14 04:28:35;;;;;;;9.75;4.60;;;;;;;-139.48;100.00;61774.03;5081202;28;20139;-66
2021/06/14 04:31:19;;;;;;;12.63;5.35;;;;;;;-139.48;100.00;61774.03;5081103;28;20051;-66
2021/06/14 04:34:03;;;;;;;9.55;4.75;;;;;;;-139.48;100.00;61774.03;5104024;22;20055;-74
2021/06/14 04:36:47;;;;;;;8.07;4.50;;;;;;;-139.48;100.00;61774.03;5066823;28;20095;-73
2021/06/14 04:39:31;;;;;;;7.95;4.20;;;;;;;-139.48;100.00;61774.03;5095869;28;20055;-74
2021/06/14 04:42:15;;;;;;;8.00;5.25;;;;;;;-139.48;100.00;61774.03;5080608;28;20417;-73
2021/06/14 04:44:59;;;;;;;7.50;4.55;;;;;;;-139.48;100.00;61774.03;5060703;28;20046;-74
2021/06/14 04:47:45;;;;;;;11.50;4.82;;;;;;;-139.48;100.00;61774.03;5060615;28;20102;-71
2021/06/14 04:50:30;;;;;;;6.38;3.90;;;;;;;-139.48;100.00;61774.03;5060909;28;20052;-74
2021/06/14 04:53:13;;;;;;;8.07;4.30;;;;;;;-139.48;100.00;61774.03;5060487;28;20070;-73
2021/06/14 04:55:57;;;;;;;6.68;4.57;;;;;;;-139.48;100.00;61774.03;5060631;28;20109;-72
2021/06/14 04:58:42;;;;;;;8.75;4.47;;;;;;;-139.48;100.00;61774.03;5075754;28;20051;-73
2021/06/14 05:01:27;;;;;;;7.40;3.92;;;;;;;-139.48;100.00;61774.03;5060634;28;20098;-73
2021/06/14 05:04:10;;;;;;;8.93;4.45;;;;;;;-139.48;100.00;61774.03;5074476;28;20554;-74
2021/06/14 05:06:54;;;;;;;12.48;5.00;;;;;;;-139.48;100.00;61774.03;5060325;28;20047;-73
2021/06/14 05:09:38;;;;;;;8.40;4.55;;;;;;;-139.48;100.00;61774.03;5075166;28;20044;-73
2021/06/14 05:12:23;;;;;;;6.00;4.20;;;;;;;-139.48;100.00;61774.03;5060126;28;20047;-72
2021/06/14 05:15:08;;;;;;;7.22;4.07;;;;;;;-139.48;100.00;61774.03;5074998;28;20047;-73
2021/06/14 05:17:52;;;;;;;5.78;4.40;;;;;;;-139.48;100.00;61774.03;5073826;28;20079;-73
2021/06/14 05:20:36;;;;;;;7.93;4.43;;;;;;;-139.48;100.00;61774.03;5074437;28;20120;-73
2021/06/14 05:23:20;;;;;;;7.50;4.45;;;;;;;-139.48;100.00;61774.03;5060107;28;20043;-73
2021/06/14 05:26:04;;;;;;;5.68;3.75;;;;;;;-139.48;100.00;61774.03;5074158;28;20112;-72
2021/06/14 05:28:48;;;;;;;8.55;3.88;;;;;;;-139.48;100.00;61774.03;5074794;28;20102;-74
2021/06/14 05:31:31;;;;;;;10.98;3.97;;;;;;;-139.48;100.00;61774.03;5045787;28;20044;-73
2021/06/14 05:34:15;;;;;;;;;;;;;;;-139.48;100.00;61774.03;5059683;28;20043;-74
2021/06/14 05:36:59;;;;;;;6.45;4.00;;;;;;;-139.48;100.00;61774.03;5073616;28;19965;-74
2021/06/14 05:39:43;;;;;;;14.00;4.60;;;;;;;-139.48;100.00;61774.03;5059334;28;20048;-74
2021/06/14 05:42:27;;;;;;;7.85;3.95;;;;;;;-139.48;100.00;61774.03;5075395;28;20392;-73
2021/06/14 05:45:12;;;;;;;8.38;3.97;;;;;;;-139.48;100.00;61774.03;5073322;28;20106;-73
2021/06/14 05:47:56;;;;;;;7.18;3.65;;;;;;;-139.48;100.00;61774.03;5045094;28;20135;-73
2021/06/14 05:50:41;;;;;;;7.22;4.43;;;;;;;-139.48;100.00;61774.03;5059382;28;20197;-73
2021/06/14 05:53:25;;;;;;;7.60;3.92;;;;;;;-139.48;100.00;61774.03;5059534;28;20401;-73
2021/06/14 05:56:09;;;;;;;9.85;3.88;;;;;;;-139.48;100.00;61774.03;5073315;28;20083;-73
2021/06/14 05:58:53;;;;;;;12.45;4.25;;;;;;;-139.48;100.00;61774.03;5073231;28;20078;-73
2021/06/14 06:01:37;;;;;;;4.93;3.65;;;;;;;-139.48;100.00;61774.03;5074375;28;20503;-73
2021/06/14 06:04:21;;;;;;;7.03;4.07;;;;;;;-139.48;100.00;61774.03;5058926;28;20051;-73
2021/06/14 06:07:05;;;;;;;7.43;3.88;;;;;;;-139.48;100.00;61774.03;5058806;28;20067;-73
2021/06/14 06:09:50;;;;;;;5.05;3.92;;;;;;;-139.48;100.00;61774.03;5059125;28;20048;-73
2021/06/14 06:12:34;;;;;;;6.15;3.35;;;;;;;-139.48;100.00;61774.03;5059040;28;20154;-73
2021/06/14 06:15:18;;;;;;;4.68;3.60;;;;;;;-139.48;100.00;61774.03;5044837;28;20051;-73
2021/06/14 06:18:02;;;;;;;4.93;3.40;;;;;;;-139.48;100.00;61774.03;5058795;28;20097;-73
2021/06/14 06:20:47;;;;;;;9.23;4.22;;;;;;;-139.48;100.00;61774.03;5058983;28;20118;-73
2021/06/14 06:23:31;;;;;;;7.32;4.10;;;;;;;-139.48;100.00;61774.03;5055639;28;20186;-73
2021/06/14 06:26:15;;;;;;;8.55;4.38;;;;;;;-139.48;100.00;61774.03;5044759;28;20047;-73
2021/06/14 06:28:59;;;;;;;7.00;4.05;;;;;;;-139.48;100.00;61774.03;5044746;28;20048;-73
2021/06/14 06:31:43;;;;;;;10.25;3.53;;;;;;;-139.48;100.00;61774.03;5058685;28;20128;-73
2021/06/14 06:34:27;;;;;;;8.25;4.57;;;;;;;-139.48;100.00;61774.03;5057889;28;20047;-73
2021/06/14 06:37:11;;;;;;;7.35;3.80;;;;;;;-139.48;100.00;61774.03;5073999;28;20047;-73
2021/06/14 06:39:55;;;;;;;7.18;3.63;;;;;;;-139.48;100.00;61774.03;5058367;28;20578;-73
2021/06/14 06:42:39;;;;;;;7.30;3.58;;;;;;;-139.48;100.00;61774.03;5058572;28;20051;-71
2021/06/14 06:45:25;;;;;;;7.25;3.45;;;;;;;-139.48;100.00;61774.03;5058427;28;20455;-73
2021/06/14 06:48:09;;;;;;;7.25;3.40;;;;;;;-139.48;100.00;61774.03;5072818;28;20516;-73
2021/06/14 06:50:53;;;;;;;7.57;3.40;;;;;;;-139.48;100.00;61774.03;5058461;28;20128;-73
2021/06/14 06:53:36;;;;;;;5.75;3.65;;;;;;;-139.48;100.00;61774.03;5058573;28;20119;-73
2021/06/14 06:56:20;;;;;;;5.80;3.20;;;;;;;-139.48;100.00;61774.03;5058321;28;20599;-73
2021/06/14 06:59:04;;;;;;;8.98;3.42;;;;;;;-139.48;100.00;61774.03;5057957;28;20528;-73
2021/06/14 07:01:49;;;;;;;6.18;3.25;;;;;;;-139.48;100.00;61774.03;5073524;28;20050;-71
2021/06/14 07:04:32;;;;;;;5.88;3.15;;;;;;;-139.48;100.00;61774.03;5057856;28;20417;-73
2021/06/14 07:07:16;;;;;;;8.02;3.45;;;;;;;-139.48;100.00;61774.03;5073125;28;20420;-73
2021/06/14 07:10:04;;;;;;;5.30;3.08;;;;;;;-139.48;100.00;61774.03;5058416;28;20444;-73
2021/06/14 07:12:48;;;;;;;6.10;3.20;;;;;;;-139.48;100.00;61774.03;5073321;28;20409;-73
2021/06/14 07:15:33;;;;;;;7.45;3.38;;;;;;;-139.48;100.00;61774.03;5057713;28;20123;-73
2021/06/14 07:18:17;;;;;;;3.28;2.90;;;;;;;-139.48;100.00;61774.03;5043964;28;20106;-73
2021/06/14 07:21:01;;;;;;;8.70;3.40;;;;;;;-139.48;100.00;61774.03;5058290;28;20054;-73
2021/06/14 07:23:45;;;;;;;7.78;3.00;;;;;;;-139.48;100.00;61774.03;5057924;28;20047;-72
2021/06/14 07:26:29;;;;;;;7.15;3.30;;;;;;;-139.48;100.00;61774.03;5058110;28;20052;-73
2021/06/14 07:29:13;;;;;;;6.32;3.50;;;;;;;-139.48;100.00;61774.03;5057964;28;20496;-73
2021/06/14 07:31:58;;;;;;;8.13;3.72;;;;;;;-139.48;100.00;61774.03;5073137;28;20078;-74
2021/06/14 07:34:42;;;;;;;7.50;3.40;;;;;;;-139.48;100.00;61774.03;5043439;28;20118;-73
2021/06/14 07:37:26;;;;;;;5.53;3.20;;;;;;;-139.48;100.00;61774.03;5057991;28;20469;-74
2021/06/14 07:40:10;;;;;;;8.63;3.17;;;;;;;-139.48;100.00;61774.03;5057815;28;20575;-73
2021/06/14 07:42:54;;;;;;;7.32;3.35;;;;;;;-139.48;100.00;61774.03;5072898;28;20090;-72
2021/06/14 07:45:40;;;;;;;4.65;3.15;;;;;;;-139.48;100.00;61774.03;5057790;28;20463;-73
2021/06/14 07:48:24;;;;;;;5.82;3.55;;;;;;;-139.48;100.00;61774.03;5061790;28;20043;-73
2021/06/14 07:51:09;;;;;;;7.22;3.45;;;;;;;-139.48;100.00;61774.03;5061668;28;20055;-73
2021/06/14 07:53:53;;;;;;;17.75;4.05;;;;;;;-139.48;100.00;61774.03;5061573;28;20043;-73
2021/06/14 07:56:43;;;;;;;10.70;3.67;;;;;;;-139.48;100.00;61774.03;5047466;28;20508;-71
2021/06/14 07:59:27;;;;;;;4.50;3.40;;;;;;;-139.48;100.00;61774.03;5075423;28;20093;-73
2021/06/14 08:02:12;;;;;;;6.75;2.90;;;;;;;-139.48;100.00;61774.03;5076408;28;20109;-73
2021/06/14 08:04:57;;;;;;;15.82;3.70;;;;;;;-139.48;100.00;61774.03;5061426;28;20143;-73
2021/06/14 08:07:41;;;;;;;6.93;3.20;;;;;;;-139.48;100.00;61774.03;5061176;28;20110;-73
2021/06/14 08:10:25;;;;;;;6.78;3.38;;;;;;;-139.48;100.00;61774.03;5076449;28;20094;-73
2021/06/14 08:13:10;;;;;;;6.65;3.13;;;;;;;-139.48;100.00;61774.03;5076291;28;20559;-73
2021/06/14 08:15:54;;;;;;;5.70;3.40;;;;;;;-139.48;100.00;61774.03;5047310;28;20101;-72
2021/06/14 08:18:44;;;;;;;6.63;3.70;;;;;;;-139.48;100.00;61774.03;5075770;28;20055;-73
2021/06/14 08:27:15;;;;;;;7.93;3.83;;;;;;;-139.48;100.00;61774.03;5063513;28;20047;-73
2021/06/14 08:29:59;;;;;;;7.22;3.72;;;;;;;-139.48;100.00;61774.03;5061284;28;20397;-73
2021/06/14 08:32:44;;;;;;;7.35;3.28;;;;;;;-139.48;100.00;61774.03;5060707;28;20067;-73
2021/06/14 08:35:29;;;;;;;4.38;3.25;;;;;;;-139.48;100.00;61774.03;5060646;28;20098;-73
2021/06/14 08:38:13;;;;;;;6.03;3.33;;;;;;;-139.48;100.00;61774.03;5060789;28;20454;-73
2021/06/14 08:40:57;;;;;;;5.05;3.28;;;;;;;-139.48;100.00;61774.03;5060861;28;20074;-73
2021/06/14 08:43:41;;;;;;;8.40;3.65;;;;;;;-139.48;100.00;61774.03;5074786;28;20258;-74
2021/06/14 08:46:26;;;;;;;7.30;3.60;;;;;;;-139.48;100.00;61774.03;5060467;28;20047;-73
2021/06/14 08:49:10;;;;;;;10.45;3.45;;;;;;;-139.48;100.00;61774.03;5060855;28;20132;-73
2021/06/14 08:51:58;;;;;;;9.40;3.50;;;;;;;-139.48;100.00;61774.03;5060682;28;20039;-73
2021/06/14 08:54:43;;;;;;;7.68;3.13;;;;;;;-139.48;100.00;61774.03;5060126;28;20475;-73
2021/06/14 08:57:27;;;;;;;11.77;3.22;;;;;;;-139.48;100.00;61774.03;5074762;28;20093;-73
2021/06/14 09:00:14;;;;;;;5.78;3.33;;;;;;;-139.48;100.00;61774.03;5060022;28;20051;-73
2021/06/14 09:02:58;;;;;;;6.45;3.20;;;;;;;-139.48;100.00;61774.03;5059978;28;20109;-74
2021/06/14 09:05:42;;;;;;;5.90;3.30;;;;;;;-139.48;100.00;61774.03;5060395;28;20097;-73
2021/06/14 09:08:26;;;;;;;8.35;3.88;;;;;;;-139.48;100.00;61774.03;5060650;28;20043;-73
2021/06/14 09:11:11;;;;;;;4.93;3.33;;;;;;;-139.48;100.00;61774.03;5060189;28;20051;-73
2021/06/14 09:13:55;;;;;;;6.35;3.50;;;;;;;-139.48;100.00;61774.03;5060220;28;20450;-73
2021/06/14 09:16:39;;;;;;;6.95;3.30;;;;;;;-139.48;100.00;61774.03;5060189;28;20079;-73
2021/06/14 09:19:36;;;;;;;3.80;3.25;;;;;;;-139.48;100.00;61774.03;5059992;28;20456;-73
2021/06/14 09:22:28;;;;;;;5.47;3.17;;;;;;;-139.48;100.00;61774.03;5060272;28;20062;-73
2021/06/14 09:25:15;;;;;;;6.60;3.38;;;;;;;-139.48;100.00;61774.03;5059892;28;20047;-73
2021/06/14 09:28:08;;;;;;;9.80;3.30;;;;;;;-139.48;100.00;61774.03;5059701;28;20051;-73
2021/06/14 09:30:52;;;;;;;9.63;3.13;;;;;;;-139.48;100.00;61774.03;5059938;28;20405;-73
2021/06/14 09:33:42;;;;;;;5.95;3.28;;;;;;;-139.48;100.00;61774.03;5059848;28;20051;-73
2021/06/14 09:36:26;;;;;;;5.97;3.05;;;;;;;-139.48;100.00;61774.03;5059672;28;20050;-73
2021/06/14 09:39:14;;;;;;;8.35;3.35;;;;;;;-139.48;100.00;61774.03;5059416;28;20505;-73
2021/06/14 09:41:58;;;;;;;5.40;3.00;;;;;;;-139.48;100.00;61774.03;5074705;28;20132;-73
2021/06/14 09:44:44;;;;;;;8.15;3.25;;;;;;;-139.48;100.00;61774.03;5059816;28;20043;-73
2021/06/14 09:47:31;;;;;;;5.97;2.97;;;;;;;-139.48;100.00;61774.03;5073626;28;20047;-73
2021/06/14 09:50:29;;;;;;;7.63;3.50;;;;;;;-139.48;100.00;61774.03;5059425;28;20083;-73
2021/06/14 09:53:16;;;;;;;5.07;3.15;;;;;;;-139.48;100.00;61774.03;5059167;28;20094;-73
2021/06/14 09:56:16;;;;;;;11.77;3.25;;;;;;;-139.48;100.00;61774.03;5059654;28;20047;-73
2021/06/14 09:58:59;;;;;;;7.53;3.40;;;;;;;-139.48;100.00;61774.03;5058834;28;20075;-73
2021/06/14 10:01:43;;;;;;;;;;;;;;;-139.48;100.00;61774.03;5074502;28;20485;-72
2021/06/14 10:04:29;;;;;;;6.82;3.15;;;;;;;-139.48;100.00;61774.03;5058962;28;19966;-73
2021/06/14 10:07:16;;;;;;;7.15;2.80;;;;;;;-139.48;100.00;61774.03;5059252;28;20047;-71
2021/06/14 10:10:00;;;;;;;6.45;3.28;;;;;;;-139.48;100.00;61774.03;5072642;28;20048;-73
2021/06/14 10:12:48;;;;;;;4.38;2.50;;;;;;;-139.48;100.00;61774.03;5058755;28;20113;-73
2021/06/14 10:15:36;;;;;;;4.95;3.45;;;;;;;-139.48;100.00;61774.03;5058917;28;20048;-73
2021/06/14 10:18:29;;;;;;;6.15;3.05;;;;;;;-139.48;100.00;61774.03;5058862;28;20087;-73
2021/06/14 10:21:29;;;;;;;3.80;2.60;;;;;;;-139.48;100.00;61774.03;5073972;28;20100;-71
2021/06/14 10:24:16;;;;;;;4.57;2.83;;;;;;;-139.48;100.00;61774.03;5058590;28;20055;-74
2021/06/14 10:27:00;;;;;;;7.75;3.03;;;;;;;-139.48;100.00;61774.03;5058702;28;20098;-71
2021/06/14 10:29:44;;;;;;;;;;;;;;;-139.48;100.00;61774.03;5059364;28;20526;-71
2021/06/14 10:32:28;;;;;;;8.48;3.03;;;;;;;-139.48;100.00;61774.03;5073100;28;20009;-71
2021/06/14 10:35:13;;;;;;;10.50;2.80;;;;;;;-139.48;100.00;61774.03;5093445;22;20082;-67
2021/06/14 10:38:01;;;;;;;5.30;2.60;;;;;;;-139.48;100.00;61774.03;5094022;28;20086;-66
2021/06/14 10:40:46;;;;;;;5.78;2.47;;;;;;;-139.48;100.00;61774.03;5078410;28;20455;-67
2021/06/14 10:43:30;;;;;;;6.32;2.85;;;;;;;-139.48;100.00;61774.03;5078599;28;20102;-67
2021/06/14 10:46:16;;;;;;;7.15;3.13;;;;;;;-139.48;100.00;61774.03;5058234;28;20047;-67
2021/06/14 10:49:01;;;;;;;5.45;2.67;;;;;;;-139.48;100.00;61774.03;5058394;28;20186;-67
2021/06/14 10:51:56;;;;;;;4.53;2.70;;;;;;;-139.48;100.00;61774.03;5058734;28;20055;-67
2021/06/14 10:54:45;;;;;;;4.70;2.50;;;;;;;-139.48;100.00;61774.03;5073473;28;20074;-67
2021/06/14 10:57:30;;;;;;;5.25;2.97;;;;;;;-139.48;100.00;61774.03;5057998;28;20043;-67
2021/06/14 11:00:35;;;;;;;10.18;3.25;;;;;;;-139.48;100.00;61774.03;5073144;28;20043;-67
2021/06/14 11:03:19;;;;;;;3.13;2.83;;;;;;;-139.48;100.00;61774.03;5073366;28;20117;-67
2021/06/14 11:06:17;;;;;;;4.10;2.70;;;;;;;-139.48;100.00;61774.03;5073084;28;20044;-67
2021/06/14 11:09:04;;;;;;;6.82;2.97;;;;;;;-139.48;100.00;61774.03;5073305;28;20047;-67
2021/06/14 11:11:50;;;;;;;3.38;2.70;;;;;;;-139.48;100.00;61774.03;5073599;28;20051;-66
2021/06/14 11:14:37;;;;;;;4.40;3.17;;;;;;;-139.48;100.00;61774.03;5073170;28;20131;-67
2021/06/14 11:17:31;;;;;;;3.13;2.67;;;;;;;-139.48;100.00;61774.03;5073222;28;20074;-67
2021/06/14 11:20:15;;;;;;;5.97;3.15;;;;;;;-139.48;100.00;61774.03;5059372;28;20409;-66
2021/06/14 11:23:00;;;;;;;4.28;3.10;;;;;;;-139.48;100.00;61774.03;5079848;28;20047;-67
2021/06/14 11:25:43;;;;;;;5.18;2.97;;;;;;;-139.48;100.00;61774.03;5064539;28;20081;-67
2021/06/14 11:28:39;;;;;;;7.18;3.30;;;;;;;-139.48;100.00;61774.03;5064547;28;20055;-67
2021/06/14 11:31:28;;;;;;;4.78;3.97;;;;;;;-139.48;100.00;61774.03;5064456;28;20512;-67
2021/06/14 11:34:19;;;;;;;4.18;2.97;;;;;;;-139.48;100.00;61774.03;5064188;28;20094;-67
2021/06/14 11:37:04;;;;;;;9.60;3.00;;;;;;;-139.48;100.00;61774.03;5050398;28;20093;-67
2021/06/14 11:39:59;;;;;;;7.15;3.55;;;;;;;-139.48;100.00;61774.03;5064514;28;20047;-67
2021/06/14 11:42:49;;;;;;;6.40;3.13;;;;;;;-139.48;100.00;61774.03;5064482;28;20090;-67
2021/06/14 11:45:38;;;;;;;6.63;3.55;;;;;;;-139.48;100.00;61774.03;5064284;28;20093;-67
2021/06/14 11:48:27;;;;;;;5.55;2.92;;;;;;;-139.48;100.00;61774.03;5064915;28;20046;-64
2021/06/14 11:51:21;;;;;;;3.60;3.20;;;;;;;-139.48;100.00;61774.03;5079312;28;20094;-65
2021/06/14 11:54:07;;;;;;;4.43;2.90;;;;;;;-139.48;100.00;61774.03;5065627;28;20043;-65
2021/06/14 11:56:58;;;;;;;5.55;3.20;;;;;;;-139.48;100.00;61774.03;5064171;28;20058;-65
2021/06/14 11:59:43;;;;;;;9.75;3.50;;;;;;;-139.48;100.00;61774.03;5064517;28;20119;-65
2021/06/14 12:02:28;;;;;;;7.32;3.38;;;;;;;-139.48;100.00;61774.03;5079215;28;20518;-65
2021/06/14 12:05:13;;;;;;;6.53;3.75;;;;;;;-139.48;100.00;61774.03;5064136;28;20051;-65
2021/06/14 12:07:57;;;;;;;5.50;3.30;;;;;;;-139.48;100.00;61774.03;5079381;28;20132;-65
2021/06/14 12:10:41;;;;;;;6.88;3.53;;;;;;;-139.48;100.00;61774.03;5079844;28;20499;-65
2021/06/14 12:13:26;;;;;;;8.23;3.25;;;;;;;-139.48;100.00;61774.03;5064246;28;20049;-65
2021/06/14 12:16:10;;;;;;;8.77;3.10;;;;;;;-139.48;100.00;61774.03;5064149;28;20115;-64
2021/06/14 12:19:03;;;;;;;3.50;3.15;;;;;;;-139.48;100.00;61774.03;5064467;28;20594;-65
2021/06/14 12:21:54;;;;;;;9.43;3.22;;;;;;;-139.48;100.00;61774.03;5064413;28;20090;-65
2021/06/14 12:24:38;;;;;;;3.08;2.65;;;;;;;-139.48;100.00;61774.03;5049992;28;20086;-65
2021/06/14 12:27:22;;;;;;;5.85;3.33;;;;;;;-139.48;100.00;61774.03;5064034;28;20097;-65
2021/06/14 12:30:11;;;;;;;5.22;3.60;;;;;;;-139.48;100.00;61774.03;5063868;28;20079;-65
2021/06/14 12:32:56;;;;;;;5.72;3.35;;;;;;;-139.48;100.00;61774.03;5061354;28;20400;-65
2021/06/14 12:35:40;;;;;;;8.38;4.97;;;;;;;-139.48;100.00;61774.03;5075587;28;20106;-65
2021/06/14 12:38:24;;;;;;;4.75;3.00;;;;;;;-139.48;100.00;61774.03;5060802;28;20071;-63
2021/06/14 12:41:09;;;;;;;6.07;3.30;;;;;;;-139.48;100.00;61774.03;5060908;28;20143;-65